HCMH

Egal International Airport

Hargeisa, Somalia
METAR HCMH 201200Z 09007KT 9999 SCT030 29/11 Q1019
Observed Flight Rules
Oct-20 @ 12:00 UTC (52 minutes ago) Visual Flight Rules
Wind Visibility Clouds
90° at 7 knots 10,000+ meters
  • Scattered at 3,000' AGL
Temperatures Readings
Current 29°C / 84°F
Dewpoint 11°C / 52°F
Humidity 33%
Altimeter 30.09" Hg
Pressure 1019 hPa
Elevation 1326
METAR HCMH 201200Z 09007KT 9999 SCT030 29/11 Q1019
Observed Flight Rules
Oct-20 @ 12:00 UTC
(52 minutes ago)
VFR
Wind Visibility
90° at 7 knots 10,000+ meters
Clouds
  • Scattered at 3,000' AGL
Temperature Dewpoint
29°C / 84°F 11°C / 52°F
Humidity Altimeter Pressure
33% 30.09" Hg 1019 hPa